createdAt,value
2022-10-22T00:00:08.889Z,17.05
2022-10-22T00:02:35.908Z,17.01
2022-10-22T00:05:03.059Z,16.84
2022-10-22T00:07:30.073Z,16.82
2022-10-22T00:09:56.754Z,16.86
2022-10-22T00:12:23.525Z,16.81
2022-10-22T00:14:50.871Z,16.78
2022-10-22T00:17:17.499Z,16.79
2022-10-22T00:19:44.319Z,16.73
2022-10-22T00:22:12.009Z,16.83
2022-10-22T00:24:39.575Z,16.77
2022-10-22T00:27:08.580Z,16.84
2022-10-22T00:29:35.463Z,16.80
2022-10-22T00:32:02.889Z,16.83
2022-10-22T00:34:30.185Z,16.71
2022-10-22T00:36:56.875Z,16.71
2022-10-22T00:39:26.200Z,16.68
2022-10-22T00:41:55.643Z,16.67
2022-10-22T00:44:59.899Z,16.67
2022-10-22T00:47:29.700Z,16.77
2022-10-22T00:49:58.711Z,16.77
2022-10-22T00:52:25.741Z,16.75
2022-10-22T00:54:52.840Z,16.73
2022-10-22T00:57:20.808Z,16.69
2022-10-22T00:59:48.486Z,16.62
2022-10-22T01:02:16.107Z,16.59
2022-10-22T01:04:43.035Z,16.62
2022-10-22T01:07:17.967Z,16.62
2022-10-22T01:09:56.818Z,16.59
2022-10-22T01:12:40.235Z,16.56
2022-10-22T01:15:32.946Z,16.50
2022-10-22T01:18:18.039Z,16.39
2022-10-22T01:20:50.209Z,16.37
2022-10-22T01:23:44.802Z,16.27
2022-10-22T01:26:34.950Z,16.25
2022-10-22T01:29:10.034Z,16.22
2022-10-22T01:31:44.323Z,16.15
2022-10-22T01:34:14.821Z,16.21
2022-10-22T01:36:42.725Z,16.25
2022-10-22T01:39:10.801Z,16.18
2022-10-22T01:41:40.375Z,16.29
2022-10-22T01:44:06.901Z,16.19
2022-10-22T01:46:33.818Z,16.23
2022-10-22T01:49:11.895Z,15.96
2022-10-22T01:52:13.052Z,16.11
2022-10-22T01:54:51.446Z,16.19
2022-10-22T01:57:43.975Z,16.24
2022-10-22T02:00:13.459Z,16.14
2022-10-22T02:02:55.229Z,16.13
2022-10-22T02:05:32.364Z,16.20
2022-10-22T02:08:12.161Z,16.26
2022-10-22T02:10:42.584Z,16.18
2022-10-22T02:13:15.899Z,16.22
2022-10-22T02:15:44.955Z,16.25
2022-10-22T02:18:12.819Z,16.29
2022-10-22T02:20:42.071Z,16.25
2022-10-22T02:23:11.092Z,16.33
2022-10-22T02:25:44.216Z,16.41
2022-10-22T02:28:15.428Z,16.43
2022-10-22T02:30:46.711Z,16.28
2022-10-22T02:33:22.286Z,16.27
2022-10-22T02:35:51.730Z,16.12
2022-10-22T02:38:19.151Z,16.04
2022-10-22T02:40:46.813Z,16.08
2022-10-22T02:43:13.363Z,16.12
2022-10-22T02:45:40.561Z,16.10
2022-10-22T02:48:07.553Z,16.10
2022-10-22T02:50:34.221Z,16.22
2022-10-22T02:53:01.038Z,16.28
2022-10-22T02:55:27.750Z,16.20
2022-10-22T02:57:54.305Z,16.24
2022-10-22T03:00:21.220Z,16.30
2022-10-22T03:02:47.795Z,16.29
2022-10-22T03:05:14.496Z,16.36
2022-10-22T03:07:41.442Z,16.31
2022-10-22T03:10:09.304Z,16.30
2022-10-22T03:12:35.904Z,16.40
2022-10-22T03:15:03.304Z,16.46
2022-10-22T03:17:29.911Z,16.53
2022-10-22T03:19:56.493Z,16.43
2022-10-22T03:22:27.225Z,16.42
2022-10-22T03:24:58.292Z,16.31
2022-10-22T03:27:28.260Z,16.27
2022-10-22T03:29:56.646Z,16.31
2022-10-22T03:32:23.301Z,16.35
2022-10-22T03:34:50.105Z,16.44
2022-10-22T03:37:17.072Z,16.40
2022-10-22T03:39:44.141Z,16.35
2022-10-22T03:42:11.475Z,16.42
2022-10-22T03:44:40.081Z,16.45
2022-10-22T03:47:07.239Z,16.43
2022-10-22T03:49:33.886Z,16.40
2022-10-22T03:52:13.433Z,16.40
2022-10-22T03:54:40.658Z,16.38
2022-10-22T03:57:07.188Z,16.34
2022-10-22T03:59:42.137Z,16.35
2022-10-22T04:02:09.982Z,16.39
2022-10-22T04:04:37.404Z,16.35
2022-10-22T04:07:05.838Z,16.27
2022-10-22T04:09:33.318Z,16.30
2022-10-22T04:12:00.877Z,16.33
2022-10-22T04:14:27.545Z,16.32
2022-10-22T04:16:54.320Z,16.41
2022-10-22T04:19:20.970Z,16.42
2022-10-22T04:21:47.804Z,16.39
2022-10-22T04:24:14.613Z,16.39
2022-10-22T04:26:41.753Z,16.44
2022-10-22T04:29:11.946Z,16.48
2022-10-22T04:31:41.851Z,16.45
2022-10-22T04:34:08.465Z,16.39
2022-10-22T04:36:35.061Z,16.33
2022-10-22T04:39:02.098Z,16.30
2022-10-22T04:41:34.799Z,16.33
2022-10-22T04:44:01.993Z,16.33
2022-10-22T04:46:30.768Z,16.32
2022-10-22T04:48:57.456Z,16.33
2022-10-22T04:51:26.034Z,16.32
2022-10-22T04:53:53.382Z,16.31
2022-10-22T04:56:26.750Z,16.32
2022-10-22T04:58:56.201Z,16.30
2022-10-22T05:01:24.697Z,16.31
2022-10-22T05:03:53.381Z,16.34
2022-10-22T05:06:20.826Z,16.28
2022-10-22T05:08:48.706Z,16.21
2022-10-22T05:11:18.885Z,16.22
2022-10-22T05:13:46.069Z,16.39
2022-10-22T05:16:13.619Z,16.34
2022-10-22T05:18:43.193Z,16.31
2022-10-22T05:21:16.033Z,16.31
2022-10-22T05:23:44.396Z,16.31
2022-10-22T05:26:12.575Z,16.22
2022-10-22T05:28:40.401Z,16.23
2022-10-22T05:31:08.863Z,16.24
2022-10-22T05:33:35.553Z,16.27
2022-10-22T05:36:05.159Z,16.31
2022-10-22T05:38:33.022Z,16.29
2022-10-22T05:41:01.781Z,16.31
2022-10-22T05:43:28.793Z,16.23
2022-10-22T05:45:56.060Z,16.27
2022-10-22T05:48:22.871Z,16.23
2022-10-22T05:50:50.708Z,16.19
2022-10-22T05:53:20.435Z,16.20
2022-10-22T05:55:47.037Z,16.14
2022-10-22T05:58:14.122Z,16.10
2022-10-22T06:00:41.386Z,16.16
2022-10-22T06:03:08.012Z,16.18
2022-10-22T06:05:38.489Z,16.14
2022-10-22T06:08:05.624Z,16.14
2022-10-22T06:10:32.377Z,16.13
2022-10-22T06:13:01.415Z,16.16
2022-10-22T06:15:28.051Z,16.10
2022-10-22T06:17:54.625Z,16.17
2022-10-22T06:20:21.571Z,16.19
2022-10-22T06:22:48.235Z,16.14
2022-10-22T06:25:15.043Z,16.16
2022-10-22T06:27:41.782Z,16.21
2022-10-22T06:30:09.185Z,16.19
2022-10-22T06:32:35.768Z,16.22
2022-10-22T06:35:02.302Z,16.23
2022-10-22T06:37:28.916Z,16.30
2022-10-22T06:39:55.479Z,16.34
2022-10-22T06:42:22.085Z,16.24
2022-10-22T06:44:49.097Z,16.25
2022-10-22T06:47:15.719Z,16.23
2022-10-22T06:49:42.629Z,16.31
2022-10-22T06:52:09.229Z,16.28
2022-10-22T06:54:36.050Z,16.25
2022-10-22T06:57:02.590Z,16.33
2022-10-22T06:59:29.339Z,16.44
2022-10-22T07:01:55.944Z,16.45
2022-10-22T07:04:22.493Z,16.41
2022-10-22T07:06:49.068Z,16.31
2022-10-22T07:09:15.751Z,16.32
2022-10-22T07:11:44.636Z,16.44
2022-10-22T07:14:12.812Z,16.51
2022-10-22T07:16:41.959Z,16.49
2022-10-22T07:19:09.092Z,16.47
2022-10-22T07:21:35.698Z,16.39
2022-10-22T07:24:02.357Z,16.23
2022-10-22T07:26:30.960Z,16.27
2022-10-22T07:28:59.678Z,16.42
2022-10-22T07:31:27.513Z,16.46
2022-10-22T07:33:54.070Z,16.44
2022-10-22T07:36:20.638Z,16.51
2022-10-22T07:38:49.023Z,16.58
2022-10-22T07:41:16.766Z,16.64
2022-10-22T07:43:43.792Z,16.67
2022-10-22T07:46:10.835Z,16.73
2022-10-22T07:48:37.812Z,16.73
2022-10-22T07:51:05.629Z,16.72
2022-10-22T07:53:32.367Z,16.78
2022-10-22T07:55:59.025Z,16.80
2022-10-22T07:58:25.753Z,16.75
2022-10-22T08:00:55.856Z,16.79
2022-10-22T08:03:22.724Z,16.72
2022-10-22T08:05:49.418Z,16.76
2022-10-22T08:08:17.109Z,16.86
2022-10-22T08:10:44.394Z,16.79
2022-10-22T08:13:11.307Z,16.88
2022-10-22T08:15:38.600Z,16.89
2022-10-22T08:18:06.106Z,16.90
2022-10-22T08:20:32.798Z,16.85
2022-10-22T08:22:59.516Z,16.89
2022-10-22T08:25:27.391Z,16.70
2022-10-22T08:27:54.199Z,16.69
2022-10-22T08:30:20.864Z,16.63
2022-10-22T08:32:49.327Z,16.54
2022-10-22T08:35:18.433Z,16.51
2022-10-22T08:37:45.149Z,16.57
2022-10-22T08:40:21.490Z,16.53
2022-10-22T08:43:02.381Z,16.51
2022-10-22T08:46:01.320Z,16.57
2022-10-22T08:48:45.112Z,16.56
2022-10-22T08:51:16.383Z,16.63
2022-10-22T08:54:07.071Z,16.58
2022-10-22T08:56:36.604Z,16.71
2022-10-22T08:59:11.748Z,16.63
2022-10-22T09:01:43.563Z,16.62
2022-10-22T09:04:48.817Z,16.62
2022-10-22T09:07:15.634Z,16.64
2022-10-22T09:09:48.147Z,16.59
2022-10-22T09:12:20.198Z,16.63
2022-10-22T09:14:47.297Z,16.59
2022-10-22T09:17:26.874Z,16.56
2022-10-22T09:20:23.759Z,16.63
2022-10-22T09:23:15.674Z,16.65
2022-10-22T09:25:44.921Z,16.72
2022-10-22T09:28:11.827Z,16.81
2022-10-22T09:30:39.980Z,16.74
2022-10-22T09:33:28.212Z,16.74
2022-10-22T09:35:58.345Z,16.68
2022-10-22T09:38:31.908Z,16.75
2022-10-22T09:41:01.248Z,16.79
2022-10-22T09:43:27.827Z,16.71
2022-10-22T09:46:00.833Z,16.71
2022-10-22T09:48:58.541Z,16.83
2022-10-22T09:51:36.054Z,16.92
2022-10-22T09:54:14.995Z,16.84
2022-10-22T09:56:42.403Z,16.76
2022-10-22T09:59:16.403Z,16.77
2022-10-22T10:01:46.782Z,16.82
2022-10-22T10:04:16.666Z,16.87
2022-10-22T10:06:44.846Z,16.88
2022-10-22T10:09:20.649Z,16.88
2022-10-22T10:12:09.032Z,16.81
2022-10-22T10:14:41.340Z,16.83
2022-10-22T10:17:29.037Z,16.87
2022-10-22T10:20:33.193Z,16.91
2022-10-22T10:23:24.444Z,16.97
2022-10-22T10:26:04.030Z,16.89
2022-10-22T10:28:51.328Z,16.91
2022-10-22T10:31:38.984Z,16.97
2022-10-22T10:34:31.280Z,17.05
2022-10-22T10:37:03.990Z,17.01
2022-10-22T10:39:49.611Z,17.17
2022-10-22T10:42:19.090Z,17.13
2022-10-22T10:45:14.114Z,17.13
2022-10-22T10:47:59.757Z,17.03
2022-10-22T10:50:34.579Z,17.11
2022-10-22T10:53:22.397Z,17.08
2022-10-22T10:56:26.739Z,17.07
2022-10-22T10:59:04.635Z,17.00
2022-10-22T11:01:44.601Z,16.91
2022-10-22T11:04:30.745Z,16.99
2022-10-22T11:07:10.954Z,17.09
2022-10-22T11:10:21.149Z,17.08
2022-10-22T11:12:52.334Z,16.98
2022-10-22T11:15:31.000Z,16.93
2022-10-22T11:18:07.423Z,16.98
2022-10-22T11:20:53.538Z,16.98
2022-10-22T11:23:32.774Z,17.16
2022-10-22T11:26:01.656Z,17.10
2022-10-22T11:28:42.215Z,17.13
2022-10-22T11:31:15.906Z,17.20
2022-10-22T11:33:57.306Z,17.29
2022-10-22T11:36:33.123Z,17.39
2022-10-22T11:39:03.630Z,17.49
2022-10-22T11:41:33.082Z,17.49
2022-10-22T11:44:20.783Z,17.39
2022-10-22T11:47:08.387Z,17.27
2022-10-22T11:49:44.845Z,17.38
2022-10-22T11:52:25.913Z,17.32
2022-10-22T11:54:58.045Z,17.21
2022-10-22T11:57:36.714Z,17.05
2022-10-22T12:00:30.188Z,16.91
2022-10-22T12:03:32.203Z,16.90
2022-10-22T12:06:04.975Z,16.73
2022-10-22T12:08:33.876Z,16.62
2022-10-22T12:11:06.297Z,16.63
2022-10-22T12:14:11.763Z,16.68
2022-10-22T12:16:55.862Z,16.60
2022-10-22T12:19:25.971Z,16.69
2022-10-22T12:21:58.947Z,16.78
2022-10-22T12:24:31.647Z,16.80
2022-10-22T12:26:58.256Z,16.97
2022-10-22T12:29:26.509Z,17.04
2022-10-22T12:31:54.124Z,16.84
2022-10-22T12:34:24.999Z,16.92
2022-10-22T12:36:53.892Z,16.99
2022-10-22T12:39:25.078Z,17.02
2022-10-22T12:41:52.979Z,17.18
2022-10-22T12:44:20.245Z,17.17
2022-10-22T12:46:51.817Z,17.23
2022-10-22T12:49:24.884Z,17.28
2022-10-22T12:51:51.659Z,17.44
2022-10-22T12:54:26.432Z,17.30
2022-10-22T12:56:55.197Z,17.37
2022-10-22T12:59:21.912Z,17.44
2022-10-22T13:01:50.270Z,17.49
2022-10-22T13:04:26.864Z,17.30
2022-10-22T13:07:11.832Z,17.49
2022-10-22T13:09:41.105Z,17.45
2022-10-22T13:12:14.638Z,17.49
2022-10-22T13:14:43.593Z,17.52
2022-10-22T13:17:20.693Z,17.62
2022-10-22T13:19:50.749Z,17.65
2022-10-22T13:22:32.768Z,17.72
2022-10-22T13:25:22.298Z,17.57
2022-10-22T13:27:56.460Z,17.48
2022-10-22T13:30:32.844Z,17.67
2022-10-22T13:33:06.822Z,17.57
2022-10-22T13:35:37.218Z,17.60
2022-10-22T13:38:15.752Z,17.58
2022-10-22T13:40:43.078Z,17.47
2022-10-22T13:43:09.611Z,17.42
2022-10-22T13:45:36.397Z,17.33
2022-10-22T13:48:03.566Z,17.45
2022-10-22T13:50:30.644Z,17.58
2022-10-22T13:52:58.120Z,17.66
2022-10-22T13:55:28.962Z,17.61
2022-10-22T13:58:03.630Z,17.73
2022-10-22T14:00:31.089Z,17.75
2022-10-22T14:02:59.729Z,17.56
2022-10-22T14:05:26.363Z,17.48
2022-10-22T14:07:53.312Z,17.46
2022-10-22T14:10:22.862Z,17.55
2022-10-22T14:12:53.384Z,17.56
2022-10-22T14:15:26.384Z,17.53
2022-10-22T14:17:56.811Z,17.60
2022-10-22T14:20:32.499Z,17.76
2022-10-22T14:23:11.648Z,17.77
2022-10-22T14:25:38.340Z,17.72
2022-10-22T14:28:04.982Z,17.63
2022-10-22T14:30:32.780Z,17.83
2022-10-22T14:32:59.462Z,17.88
2022-10-22T14:35:26.115Z,17.77
2022-10-22T14:37:53.727Z,17.88
2022-10-22T14:40:21.186Z,17.97
2022-10-22T14:42:48.798Z,17.91
2022-10-22T14:45:24.513Z,17.96
2022-10-22T14:47:52.398Z,18.07
2022-10-22T14:50:19.425Z,18.08
2022-10-22T14:52:46.190Z,17.90
2022-10-22T14:55:15.437Z,18.13
2022-10-22T14:57:42.890Z,18.34
2022-10-22T15:00:14.670Z,18.30
2022-10-22T15:02:42.420Z,18.30
2022-10-22T15:05:10.164Z,18.19
2022-10-22T15:07:37.559Z,18.18
2022-10-22T15:10:05.544Z,18.13
2022-10-22T15:12:32.603Z,18.23
2022-10-22T15:14:59.458Z,18.31
2022-10-22T15:17:26.171Z,18.08
2022-10-22T15:19:53.210Z,18.06
2022-10-22T15:22:20.575Z,18.04
2022-10-22T15:24:48.438Z,18.12
2022-10-22T15:27:15.903Z,18.14
2022-10-22T15:29:42.692Z,18.18
2022-10-22T15:32:12.089Z,18.10
2022-10-22T15:34:40.043Z,18.02
2022-10-22T15:37:09.011Z,18.14
2022-10-22T15:39:38.662Z,18.31
2022-10-22T15:42:05.303Z,18.40
2022-10-22T15:44:32.403Z,18.39
2022-10-22T15:47:00.436Z,18.42
2022-10-22T15:49:28.579Z,18.40
2022-10-22T15:51:55.906Z,18.37
2022-10-22T15:54:25.296Z,18.36
2022-10-22T15:56:52.126Z,18.31
2022-10-22T15:59:18.768Z,18.24
2022-10-22T16:01:46.086Z,18.19
2022-10-22T16:04:13.413Z,18.18
2022-10-22T16:06:46.172Z,18.12
2022-10-22T16:09:15.914Z,18.05
2022-10-22T16:11:42.905Z,17.97
2022-10-22T16:14:15.009Z,17.94
2022-10-22T16:16:47.334Z,17.84
2022-10-22T16:19:16.521Z,17.76
2022-10-22T16:21:45.015Z,17.76
2022-10-22T16:24:12.515Z,17.68
2022-10-22T16:26:39.164Z,17.64
2022-10-22T16:29:07.042Z,17.62
2022-10-22T16:31:34.230Z,17.53
2022-10-22T16:34:01.008Z,17.51
2022-10-22T16:36:27.609Z,17.50
2022-10-22T16:38:54.305Z,17.48
2022-10-22T16:41:23.969Z,17.48
2022-10-22T16:43:54.899Z,17.39
2022-10-22T16:46:23.143Z,17.33
2022-10-22T16:48:52.545Z,17.30
2022-10-22T16:51:25.896Z,17.22
2022-10-22T16:53:53.883Z,17.17
2022-10-22T16:56:21.670Z,17.05
2022-10-22T16:58:50.913Z,16.99
2022-10-22T17:01:19.578Z,16.98
2022-10-22T17:03:46.251Z,16.89
2022-10-22T17:06:13.142Z,16.87
2022-10-22T17:08:41.337Z,16.87
2022-10-22T17:11:10.738Z,16.88
2022-10-22T17:13:37.906Z,16.80
2022-10-22T17:16:06.733Z,16.77
2022-10-22T17:18:35.694Z,16.73
2022-10-22T17:21:04.412Z,16.66
2022-10-22T17:23:31.367Z,16.69
2022-10-22T17:26:00.539Z,16.63
2022-10-22T17:28:28.328Z,16.64
2022-10-22T17:31:10.716Z,16.54
2022-10-22T17:33:37.528Z,16.60
2022-10-22T17:36:10.734Z,16.70
2022-10-22T17:38:38.870Z,16.81
2022-10-22T17:41:07.451Z,16.82
2022-10-22T17:43:37.654Z,16.64
2022-10-22T17:46:13.263Z,16.52
2022-10-22T17:48:40.112Z,16.44
2022-10-22T17:51:12.249Z,16.49
2022-10-22T17:53:46.155Z,16.48
2022-10-22T17:56:15.481Z,16.35
2022-10-22T17:58:42.279Z,16.30
2022-10-22T18:01:22.838Z,16.26
2022-10-22T18:03:49.638Z,16.32
2022-10-22T18:06:16.780Z,16.29
2022-10-22T18:08:44.674Z,16.41
2022-10-22T18:11:14.568Z,16.45
2022-10-22T18:13:41.208Z,16.48
2022-10-22T18:16:08.426Z,16.61
2022-10-22T18:18:36.238Z,16.64
2022-10-22T18:21:03.760Z,16.72
2022-10-22T18:23:30.426Z,16.51
2022-10-22T18:25:56.962Z,16.34
2022-10-22T18:28:23.729Z,16.19
2022-10-22T18:30:50.876Z,16.00
2022-10-22T18:33:19.056Z,16.14
2022-10-22T18:35:46.775Z,16.25
2022-10-22T18:38:13.554Z,16.26
2022-10-22T18:40:46.774Z,16.19
2022-10-22T18:43:14.106Z,16.08
2022-10-22T18:45:47.720Z,16.06
2022-10-22T18:48:18.058Z,15.98
2022-10-22T18:50:46.550Z,16.12
2022-10-22T18:53:15.177Z,16.20
2022-10-22T18:55:42.024Z,16.07
2022-10-22T18:58:08.957Z,15.94
2022-10-22T19:00:35.963Z,16.04
2022-10-22T19:03:03.210Z,16.03
2022-10-22T19:05:30.500Z,16.16
2022-10-22T19:07:57.193Z,16.21
2022-10-22T19:10:24.292Z,16.00
2022-10-22T19:12:50.941Z,15.92
2022-10-22T19:15:17.812Z,16.15
2022-10-22T19:17:44.730Z,16.26
2022-10-22T19:20:11.600Z,16.33
2022-10-22T19:22:38.504Z,16.22
2022-10-22T19:25:07.155Z,16.09
2022-10-22T19:27:36.510Z,15.89
2022-10-22T19:30:04.664Z,15.81
2022-10-22T19:32:31.343Z,15.74
2022-10-22T19:34:58.053Z,15.72
2022-10-22T19:37:24.664Z,15.65
2022-10-22T19:39:51.582Z,15.61
2022-10-22T19:42:18.322Z,15.48
2022-10-22T19:44:44.891Z,15.45
2022-10-22T19:47:11.472Z,15.36
2022-10-22T19:49:38.194Z,15.30
2022-10-22T19:52:05.502Z,15.30
2022-10-22T19:54:32.069Z,15.24
2022-10-22T19:56:58.704Z,15.44
2022-10-22T19:59:29.787Z,15.51
2022-10-22T20:01:58.139Z,15.56
2022-10-22T20:04:26.782Z,15.53
2022-10-22T20:06:55.050Z,15.54
2022-10-22T20:09:21.881Z,15.49
2022-10-22T20:11:49.049Z,15.45
2022-10-22T20:14:15.691Z,15.41
2022-10-22T20:16:42.524Z,15.44
2022-10-22T20:19:11.029Z,15.37
2022-10-22T20:21:37.877Z,15.33
2022-10-22T20:24:04.525Z,15.47
2022-10-22T20:26:31.679Z,15.44
2022-10-22T20:28:58.906Z,15.47
2022-10-22T20:31:29.231Z,15.69
2022-10-22T20:33:58.542Z,15.85
2022-10-22T20:36:26.545Z,15.94
2022-10-22T20:38:59.351Z,16.07
2022-10-22T20:41:26.061Z,16.23
2022-10-22T20:43:52.958Z,16.23
2022-10-22T20:46:29.381Z,16.18
2022-10-22T20:49:06.114Z,16.20
2022-10-22T20:51:34.783Z,16.22
2022-10-22T20:54:01.399Z,16.26
2022-10-22T20:56:28.599Z,16.26
2022-10-22T20:59:04.860Z,16.23
2022-10-22T21:01:41.060Z,16.22
2022-10-22T21:04:08.420Z,15.94
2022-10-22T21:06:38.171Z,15.83
2022-10-22T21:09:06.990Z,15.72
2022-10-22T21:11:34.349Z,15.48
2022-10-22T21:14:01.033Z,15.43
2022-10-22T21:16:27.942Z,15.48
2022-10-22T21:18:54.781Z,15.65
2022-10-22T21:21:21.445Z,15.82
2022-10-22T21:23:50.304Z,16.08
2022-10-22T21:26:18.321Z,16.21
2022-10-22T21:28:45.010Z,16.28
2022-10-22T21:31:18.771Z,16.38
2022-10-22T21:33:45.603Z,16.06
2022-10-22T21:36:12.321Z,15.98
2022-10-22T21:38:39.135Z,16.13
2022-10-22T21:41:07.937Z,16.04
2022-10-22T21:43:37.766Z,16.06
2022-10-22T21:46:12.947Z,16.15
2022-10-22T21:48:40.512Z,16.17
2022-10-22T21:51:10.454Z,16.10
2022-10-22T21:53:38.085Z,16.00
2022-10-22T21:56:05.447Z,15.83
2022-10-22T21:58:36.790Z,15.76
2022-10-22T22:01:04.279Z,15.81
2022-10-22T22:03:31.053Z,15.85
2022-10-22T22:06:01.833Z,15.72
2022-10-22T22:08:29.283Z,15.57
2022-10-22T22:11:05.293Z,15.57
2022-10-22T22:13:33.143Z,15.52
2022-10-22T22:16:23.863Z,15.31
2022-10-22T22:18:53.927Z,15.29
2022-10-22T22:21:21.852Z,15.22
2022-10-22T22:23:50.192Z,15.32
2022-10-22T22:26:25.203Z,15.54
2022-10-22T22:28:55.617Z,15.56
2022-10-22T22:31:27.909Z,15.55
2022-10-22T22:34:10.147Z,15.70
2022-10-22T22:36:40.148Z,15.60
2022-10-22T22:39:11.346Z,15.30
2022-10-22T22:41:37.962Z,15.32
2022-10-22T22:44:04.901Z,15.51
2022-10-22T22:46:31.607Z,15.39
2022-10-22T22:48:58.138Z,15.45
2022-10-22T22:51:25.000Z,15.61
2022-10-22T22:53:52.010Z,15.78
2022-10-22T22:56:22.188Z,15.80
2022-10-22T22:58:49.009Z,15.74
2022-10-22T23:01:23.263Z,15.55
2022-10-22T23:04:02.841Z,15.33
2022-10-22T23:06:32.493Z,15.29
2022-10-22T23:08:59.638Z,15.07
2022-10-22T23:11:27.486Z,15.14
2022-10-22T23:13:59.762Z,15.27
2022-10-22T23:16:30.348Z,15.12
2022-10-22T23:18:58.902Z,15.24
2022-10-22T23:21:31.985Z,15.35
2022-10-22T23:24:01.718Z,15.36
2022-10-22T23:26:31.279Z,15.21
2022-10-22T23:29:17.631Z,15.18
2022-10-22T23:31:45.798Z,15.03
2022-10-22T23:34:16.233Z,14.95
2022-10-22T23:36:43.021Z,14.94
2022-10-22T23:39:12.077Z,14.89
2022-10-22T23:41:38.959Z,14.79
2022-10-22T23:44:07.286Z,14.85
2022-10-22T23:46:34.922Z,14.99
2022-10-22T23:49:01.959Z,14.91
2022-10-22T23:51:28.702Z,14.80
2022-10-22T23:54:04.717Z,14.81
2022-10-22T23:56:32.387Z,14.77
2022-10-22T23:58:59.406Z,14.78
